This is the latest recevied weather packets stored in our database for station/object DM1AS-13. If no packets are shown the sender has not sent any weather packets the latest 10 day(s).
| Time | Temp. | Humidity | Pressure | Rain* | Wind** | Luminosity | Snow |
|---|---|---|---|---|---|---|---|
| 1777629817 | - | - | - | 0 mm | - | - | - |
| 1777627910 | 20.56° C | 42% | 1031.2 hPa | 0 mm | - | - | - |
| 1777627687 | 20° C | 42% | 1031.1 hPa | 0 mm | - | - | - |
| 1777627457 | 20° C | 42% | 1031.2 hPa | 0 mm | - | - | - |
| 1777624881 | 18.89° C | 45% | 1031.2 hPa | 0 mm | - | - | - |
| 1777624802 | 18.89° C | 45% | 1031.2 hPa | 0 mm | - | - | - |
| 1777623943 | 18.33° C | 45% | 1031.3 hPa | 0 mm | - | - | - |
| 1777622177 | - | - | - | 0 mm | - | - | - |
| 1777619117 | - | - | - | 0 mm | - | - | - |
| 1777618287 | 14.44° C | 58% | 1031.4 hPa | 0 mm | - | - | - |
| 1777616297 | 12.78° C | 63% | 1031.3 hPa | 0 mm | - | - | - |
| 1777611496 | 8.33° C | 82% | 1031.1 hPa | 0 mm | - | - | - |
| 1777607296 | 7.78° C | 80% | 1031.1 hPa | 0 mm | - | - | - |
| 1777602496 | 8.89° C | 78% | 1031.1 hPa | 0 mm | - | - | - |
| 1777600096 | 8.89° C | 77% | 1031.1 hPa | 0 mm | - | - | - |
| 1777595896 | 9.44° C | 73% | 1031 hPa | 0 mm | - | - | - |
| 1777593496 | 10° C | 71% | 1030.9 hPa | 0 mm | - | - | - |
| 1777591696 | 11.11° C | 68% | 1030.9 hPa | 0 mm | - | - | - |
| 1777590496 | 11.11° C | 68% | 1031 hPa | 0 mm | - | - | - |
| 1777589896 | 11.67° C | 67% | 1031 hPa | 0 mm | - | - | - |
| 1777587496 | 12.22° C | 65% | 1031 hPa | 0 mm | - | - | - |
| 1777584496 | 12.22° C | 64% | 1031.1 hPa | 0 mm | - | - | - |
| 1777581496 | 13.33° C | 61% | 1030.9 hPa | 0 mm | - | - | - |
| 1777571296 | 18.89° C | 43% | 1030.2 hPa | 0 mm | - | - | - |
| 1777570096 | 20° C | 38% | 1030.3 hPa | 0 mm | - | - | - |
* Rain latest hour (hover to see other rain measurements)
** Current wind speed in m/s (hover to see current wind gust speed)